Time;durP1;ratioP1;P1;durP2;ratioP2;P2;SDS_P1;SDS_P2;PMS_P1;PMS_P2;Temp;Humidity;BMP_temperature;BMP_pressure;BME280_temperature;BME280_humidity;BME280_pressure;Samples;Min_cycle;Max_cycle;Signal;HPM_P1;HPM_P2
2021/12/05 00:23:50;;;;;;;14.40;4.53;;;3.90;99.90;;;;;;5082775;28;20020;-92
2021/12/05 00:26:19;;;;;;;14.10;5.38;;;3.80;99.90;;;;;;5067361;28;20008;-90
2021/12/05 00:34:32;;;;;;;19.00;5.97;;;3.80;99.90;;;;;;5083971;28;20117;-89
2021/12/05 00:48:01;;;;;;;14.55;6.28;;;3.70;99.90;;;;;;5083874;28;20067;-89
2021/12/05 01:15:04;;;;;;;14.40;4.28;;;3.60;99.90;;;;;;5045312;28;20033;-88
2021/12/05 01:17:53;;;;;;;13.93;4.50;;;3.70;99.90;;;;;;5051989;28;20024;-92
2021/12/05 01:20:20;;;;;;;18.63;5.45;;;3.70;99.90;;;;;;5057091;28;20024;-91
2021/12/05 01:22:57;;;;;;;16.33;4.75;;;3.70;99.90;;;;;;5060982;28;20023;-90
2021/12/05 01:28:35;;;;;;;10.50;3.75;;;3.80;99.90;;;;;;5079621;28;20052;-90
2021/12/05 01:31:26;;;;;;;15.45;4.72;;;3.80;99.90;;;;;;5058839;28;20119;-89
2021/12/05 01:42:17;;;;;;;10.80;3.85;;;3.80;99.90;;;;;;5082183;28;20032;-91
2021/12/05 01:50:57;;;;;;;12.80;4.43;;;3.80;99.90;;;;;;5082957;28;20036;-91
2021/12/05 01:56:09;;;;;;;15.35;4.00;;;3.70;99.90;;;;;;5018658;28;20030;-93
2021/12/05 01:58:56;;;;;;;17.48;5.07;;;3.70;99.90;;;;;;5065569;28;20470;-86
2021/12/05 02:09:47;;;;;;;13.52;4.32;;;3.70;99.90;;;;;;5083339;28;20108;-88
2021/12/05 02:31:45;;;;;;;15.68;4.40;;;3.60;99.90;;;;;;5085683;28;20043;-89
2021/12/05 02:42:23;;;;;;;21.17;5.00;;;3.50;99.90;;;;;;5073120;28;20076;-87
2021/12/05 02:44:56;;;;;;;17.40;4.35;;;3.50;99.90;;;;;;5068557;28;20167;-88
2021/12/05 02:47:29;;;;;;;17.02;4.32;;;3.50;99.90;;;;;;5067547;28;20044;-88
2021/12/05 02:50:10;;;;;;;16.17;4.72;;;3.50;99.90;;;;;;5081134;28;20028;-89
2021/12/05 02:52:52;;;;;;;16.15;5.32;;;3.50;99.90;;;;;;5069997;28;20047;-90
2021/12/05 02:55:43;;;;;;;23.35;5.78;;;3.50;99.90;;;;;;5056432;28;20017;-88
2021/12/05 03:03:32;;;;;;;16.35;5.00;;;3.60;99.90;;;;;;5084770;28;20020;-83
2021/12/05 03:06:26;;;;;;;18.75;6.03;;;3.60;99.90;;;;;;5075977;28;20175;-88
2021/12/05 03:08:59;;;;;;;19.15;5.00;;;3.60;99.90;;;;;;5026949;28;20027;-86
2021/12/05 03:11:26;;;;;;;;;;;3.60;99.90;;;;;;5026033;28;20033;-89
2021/12/05 03:13:52;;;;;;;21.40;5.25;;;3.60;99.90;;;;;;5022415;28;19919;-89
2021/12/05 03:16:21;;;;;;;22.10;5.63;;;3.60;99.90;;;;;;5025289;28;20024;-92
2021/12/05 03:18:47;;;;;;;16.40;5.07;;;3.60;99.90;;;;;;5008697;28;20037;-90
2021/12/05 03:21:13;;;;;;;21.70;6.57;;;3.50;99.90;;;;;;5023678;28;20021;-91
2021/12/05 03:23:42;;;;;;;17.90;5.30;;;3.50;99.90;;;;;;5023323;28;20076;-90
2021/12/05 03:26:11;;;;;;;15.43;4.10;;;3.50;99.90;;;;;;5028477;28;20021;-88
2021/12/05 03:28:38;;;;;;;15.13;4.65;;;3.50;99.90;;;;;;5046802;28;20056;-89
2021/12/05 03:31:05;;;;;;;20.20;4.88;;;3.50;99.90;;;;;;5024964;28;20049;-88
2021/12/05 03:33:31;;;;;;;20.08;5.68;;;3.40;99.90;;;;;;5023247;28;20097;-91
2021/12/05 03:35:58;;;;;;;21.17;4.90;;;3.40;99.90;;;;;;5024957;28;20088;-91
2021/12/05 03:38:24;;;;;;;15.10;4.07;;;3.40;99.90;;;;;;5010746;28;20037;-90
2021/12/05 03:40:52;;;;;;;16.92;3.95;;;3.40;99.90;;;;;;5025588;28;20017;-88
2021/12/05 03:43:20;;;;;;;17.95;4.68;;;3.40;99.90;;;;;;5025667;28;20028;-90
2021/12/05 03:46:05;;;;;;;13.75;4.28;;;3.30;99.90;;;;;;5027288;28;20041;-88
2021/12/05 03:48:38;;;;;;;23.40;4.95;;;3.40;99.90;;;;;;5043553;28;20100;-92
2021/12/05 03:51:06;;;;;;;20.40;5.35;;;3.30;99.90;;;;;;5023618;28;20025;-92
2021/12/05 03:53:34;;;;;;;21.98;4.28;;;3.40;99.90;;;;;;5023727;28;20063;-90
2021/12/05 03:56:03;;;;;;;22.90;5.15;;;3.40;99.90;;;;;;5008921;28;20040;-87
2021/12/05 03:58:30;;;;;;;13.00;4.15;;;3.40;99.90;;;;;;5025207;28;20033;-90
2021/12/05 04:00:58;;;;;;;19.83;4.72;;;3.50;99.90;;;;;;5023463;28;20044;-88
2021/12/05 04:03:27;;;;;;;15.90;6.05;;;3.50;99.90;;;;;;5023645;28;20399;-88
2021/12/05 04:05:53;;;;;;;17.60;5.20;;;3.50;99.90;;;;;;5030033;28;20072;-92
2021/12/05 04:08:25;;;;;;;16.08;4.75;;;3.50;99.90;;;;;;5028107;28;20061;-89
2021/12/05 04:11:01;;;;;;;19.67;4.65;;;3.50;99.90;;;;;;5029239;28;20032;-88
2021/12/05 04:13:31;;;;;;;17.63;4.72;;;3.60;99.90;;;;;;5027519;28;20041;-89
2021/12/05 04:16:00;;;;;;;13.02;5.28;;;3.60;99.90;;;;;;5027007;28;20021;-90
2021/12/05 04:18:29;;;;;;;20.08;6.25;;;3.60;99.90;;;;;;5048511;23;20063;-88
2021/12/05 04:20:55;;;;;;;17.13;6.60;;;3.60;99.90;;;;;;5061478;28;20100;-88
2021/12/05 04:23:22;;;;;;;11.80;5.63;;;3.70;99.90;;;;;;5064549;28;20033;-91
2021/12/05 04:25:49;;;;;;;14.82;5.60;;;3.70;99.90;;;;;;5064185;28;20029;-89
2021/12/05 04:28:16;;;;;;;19.23;6.45;;;3.70;99.90;;;;;;5048264;28;20021;-88
2021/12/05 04:30:42;;;;;;;14.98;5.85;;;3.70;99.90;;;;;;5063265;28;20179;-89
2021/12/05 04:33:10;;;;;;;14.35;6.03;;;3.70;99.90;;;;;;5062562;28;20029;-89
2021/12/05 04:35:37;;;;;;;17.50;6.90;;;3.70;99.90;;;;;;5064192;28;20631;-88
2021/12/05 04:38:09;;;;;;;17.95;6.47;;;3.70;99.90;;;;;;5066973;28;20449;-86
2021/12/05 04:40:35;;;;;;;15.40;6.68;;;3.80;99.90;;;;;;5066138;28;20478;-88
2021/12/05 04:45:48;;;;;;;11.90;6.15;;;3.80;99.90;;;;;;5046271;22;20080;-88
2021/12/05 04:48:17;;;;;;;17.67;7.65;;;3.80;99.90;;;;;;5046242;28;20041;-91
2021/12/05 04:50:44;;;;;;;17.02;6.60;;;3.80;99.90;;;;;;5043661;28;20033;-91
2021/12/05 04:53:16;;;;;;;18.20;6.80;;;3.80;99.90;;;;;;5025555;28;20022;-90
2021/12/05 04:55:48;;;;;;;16.27;7.15;;;3.90;99.90;;;;;;5013002;28;20025;-89
2021/12/05 04:58:17;;;;;;;18.42;7.68;;;3.80;99.90;;;;;;5046782;28;20105;-90
2021/12/05 05:01:05;;;;;;;17.90;7.47;;;3.90;99.90;;;;;;5045300;28;20026;-89
2021/12/05 05:03:38;;;;;;;14.90;7.72;;;3.90;99.90;;;;;;5047709;28;20033;-88
2021/12/05 05:06:15;;;;;;;18.67;7.30;;;3.90;99.90;;;;;;5059183;22;20033;-90
2021/12/05 05:08:53;;;;;;;16.25;7.65;;;3.90;99.90;;;;;;5062590;28;20017;-90
2021/12/05 05:13:51;;;;;;;13.20;7.85;;;3.90;99.90;;;;;;5056431;28;20056;-91
2021/12/05 05:16:21;;;;;;;18.95;7.55;;;4.00;99.90;;;;;;5028979;28;20097;-92
2021/12/05 05:18:57;;;;;;;14.90;8.05;;;4.00;99.90;;;;;;5061285;28;20026;-91
2021/12/05 05:41:28;;;;;;;15.07;7.75;;;4.10;99.90;;;;;;5066517;28;20064;-89
2021/12/05 05:44:23;;;;;;;15.00;7.90;;;4.10;99.90;;;;;;5112528;22;20055;-87
2021/12/05 05:46:39;;;;;;;17.33;8.77;;;4.10;99.90;;;;;;5069100;28;20032;-88
2021/12/05 05:51:39;;;;;;;15.25;9.02;;;4.20;99.90;;;;;;5068154;28;20033;-90
2021/12/05 05:54:05;;;;;;;14.75;8.27;;;4.20;99.90;;;;;;5052662;28;20127;-89
2021/12/05 05:56:34;;;;;;;15.80;7.38;;;4.20;99.90;;;;;;5052168;28;20025;-90
2021/12/05 05:59:13;;;;;;;16.05;8.35;;;4.20;99.90;;;;;;5082377;22;20049;-87
2021/12/05 06:04:21;;;;;;;11.60;7.38;;;4.20;99.90;;;;;;5068316;28;20060;-88
2021/12/05 06:06:55;;;;;;;12.68;7.28;;;4.20;99.90;;;;;;5046277;28;20033;-90
2021/12/05 06:09:22;;;;;;;12.20;7.80;;;4.20;99.90;;;;;;5051757;28;20029;-88
2021/12/05 06:11:49;;;;;;;15.13;7.68;;;4.30;99.90;;;;;;5068202;28;20047;-90
2021/12/05 06:14:14;;;;;;;14.50;7.60;;;4.30;99.90;;;;;;5045871;28;20033;-91
2021/12/05 06:16:41;;;;;;;12.35;6.97;;;4.30;99.90;;;;;;5048397;28;20364;-89
2021/12/05 06:19:08;;;;;;;12.90;7.60;;;4.30;99.90;;;;;;5047559;28;20044;-87
2021/12/05 06:21:33;;;;;;;12.38;7.45;;;4.30;99.90;;;;;;5061946;28;20116;-90
2021/12/05 06:23:59;;;;;;;14.20;7.60;;;4.30;99.90;;;;;;5044864;28;20078;-90
2021/12/05 06:26:26;;;;;;;9.90;6.95;;;4.30;99.90;;;;;;5043913;28;20040;-88
2021/12/05 06:29:33;;;;;;;12.05;7.60;;;4.20;99.90;;;;;;5045862;28;20036;-91
2021/12/05 06:37:44;;;;;;;15.13;7.03;;;4.20;99.90;;;;;;5063780;28;20052;-91
2021/12/05 06:43:01;;;;;;;13.57;6.93;;;4.20;99.90;;;;;;5065300;28;20033;-90
2021/12/05 06:48:14;;;;;;;10.27;6.80;;;4.10;99.90;;;;;;5070535;28;20051;-88
2021/12/05 06:50:40;;;;;;;11.95;6.95;;;4.10;99.90;;;;;;5074271;28;20021;-88
2021/12/05 06:53:07;;;;;;;12.93;7.18;;;4.10;99.90;;;;;;5068488;28;20104;-90
2021/12/05 06:55:34;;;;;;;17.65;7.57;;;4.20;99.90;;;;;;5047330;28;20156;-91
2021/12/05 06:58:00;;;;;;;12.65;7.63;;;4.20;99.90;;;;;;5046288;28;20009;-90
2021/12/05 07:00:28;;;;;;;10.77;6.47;;;4.20;99.90;;;;;;5043964;28;20079;-89
2021/12/05 07:02:54;;;;;;;12.40;7.03;;;4.20;99.90;;;;;;5042410;28;20390;-89
2021/12/05 07:05:44;;;;;;;13.48;7.45;;;4.20;99.90;;;;;;5043502;28;20033;-86
2021/12/05 07:08:14;;;;;;;15.95;7.35;;;4.20;99.90;;;;;;5071800;28;20093;-87
2021/12/05 07:10:59;;;;;;;10.68;6.82;;;4.20;99.90;;;;;;5051906;28;20032;-86
2021/12/05 07:26:31;;;;;;;16.10;8.57;;;4.20;99.90;;;;;;5061931;28;20036;-90
2021/12/05 07:42:41;;;;;;;12.32;9.20;;;4.30;99.90;;;;;;5063597;28;20075;-89
2021/12/05 07:45:13;;;;;;;11.27;8.30;;;4.30;99.90;;;;;;5052465;28;20037;-90
2021/12/05 07:47:44;;;;;;;12.02;8.38;;;4.30;99.90;;;;;;5046527;28;20036;-88
2021/12/05 07:50:12;;;;;;;10.50;8.05;;;4.30;99.90;;;;;;5061804;28;20025;-88
2021/12/05 07:52:45;;;;;;;12.07;8.52;;;4.20;99.90;;;;;;5040805;28;20041;-87
2021/12/05 07:55:23;;;;;;;9.07;7.60;;;4.20;99.90;;;;;;5038683;28;20036;-87
2021/12/05 07:58:07;;;;;;;9.85;6.95;;;4.20;99.90;;;;;;5040582;28;20048;-88
2021/12/05 08:01:00;;;;;;;8.00;6.43;;;4.20;99.90;;;;;;5045555;28;20080;-89
2021/12/05 08:14:49;;;;;;;10.27;5.95;;;4.10;99.90;;;;;;5049835;28;20071;-87
2021/12/05 08:17:18;;;;;;;10.43;6.95;;;4.20;99.90;;;;;;5043905;28;20112;-86
2021/12/05 08:19:45;;;;;;;8.73;6.57;;;4.20;99.90;;;;;;5045120;28;20020;-89
2021/12/05 08:22:11;;;;;;;8.55;6.85;;;4.20;99.90;;;;;;5045089;28;20025;-90
2021/12/05 08:24:40;;;;;;;9.32;7.82;;;4.20;99.90;;;;;;5046522;28;20021;-89
2021/12/05 08:27:08;;;;;;;9.95;8.13;;;4.20;99.90;;;;;;5041900;28;20060;-89
2021/12/05 08:29:57;;;;;;;8.93;7.60;;;4.20;99.90;;;;;;5039433;28;20057;-92
2021/12/05 09:25:06;;;;;;;10.65;8.45;;;4.20;99.90;;;;;;5055338;28;20051;-88
2021/12/05 10:03:03;;;;;;;16.02;10.85;;;4.50;99.90;;;;;;5062435;28;20032;-91
2021/12/05 10:11:09;;;;;;;14.13;10.48;;;4.60;99.90;;;;;;5059750;28;20494;-91
2021/12/05 10:13:36;;;;;;;13.82;9.98;;;4.60;99.90;;;;;;5047965;28;20029;-92
2021/12/05 10:27:16;;;;;;;14.57;11.35;;;4.70;99.90;;;;;;5015201;28;20037;-92
2021/12/05 10:38:23;;;;;;;13.57;10.25;;;4.80;99.90;;;;;;5059655;28;20542;-89
2021/12/05 10:43:36;;;;;;;14.30;10.77;;;4.80;99.90;;;;;;5060179;28;20033;-89
2021/12/05 10:46:08;;;;;;;15.20;10.80;;;4.90;99.90;;;;;;5041509;28;20091;-91
2021/12/05 10:48:44;;;;;;;14.80;11.48;;;4.80;99.90;;;;;;5059893;28;20025;-89
2021/12/05 10:51:17;;;;;;;14.00;9.55;;;4.80;99.90;;;;;;5043319;28;20017;-88
2021/12/05 10:53:44;;;;;;;;;;;4.80;99.90;;;;;;5042643;28;20029;-89
2021/12/05 10:56:29;;;;;;;15.15;10.93;;;4.80;99.90;;;;;;5041520;28;19944;-86
2021/12/05 10:59:08;;;;;;;13.38;10.50;;;4.80;99.90;;;;;;5041952;28;20021;-88
2021/12/05 11:01:42;;;;;;;12.88;10.35;;;4.90;99.90;;;;;;5041056;28;20031;-86
2021/12/05 11:04:07;;;;;;;;;;;4.90;99.90;;;;;;5040049;28;20487;-86
2021/12/05 11:06:37;;;;;;;16.38;11.45;;;4.90;99.90;;;;;;5039864;28;19917;-88
2021/12/05 11:09:07;;;;;;;16.63;11.55;;;4.90;99.90;;;;;;5042499;28;20025;-89
2021/12/05 11:11:35;;;;;;;15.15;11.20;;;5.00;99.90;;;;;;5043514;28;20047;-86
2021/12/05 11:14:03;;;;;;;16.60;11.93;;;5.00;99.90;;;;;;5042384;28;20029;-87
2021/12/05 11:16:34;;;;;;;15.98;11.10;;;5.10;99.90;;;;;;5042447;28;20047;-88
2021/12/05 11:19:00;;;;;;;14.40;11.38;;;5.10;99.90;;;;;;5045093;28;20040;-93
2021/12/05 11:21:34;;;;;;;16.27;11.70;;;5.00;99.90;;;;;;5049709;28;20076;-90
2021/12/05 11:24:11;;;;;;;15.07;10.35;;;5.10;99.90;;;;;;5043884;28;20576;-89
2021/12/05 11:26:40;;;;;;;13.25;10.10;;;5.00;99.90;;;;;;5046900;28;20017;-89
2021/12/05 11:29:06;;;;;;;15.60;11.70;;;5.10;99.90;;;;;;5052844;28;20037;-89
2021/12/05 11:31:35;;;;;;;13.25;10.52;;;5.10;99.90;;;;;;5047063;28;20029;-92
2021/12/05 11:34:00;;;;;;;14.88;11.32;;;5.10;99.90;;;;;;5048406;28;20091;-90
2021/12/05 11:36:29;;;;;;;14.50;11.35;;;5.10;99.90;;;;;;5050811;28;20029;-91
2021/12/05 11:38:55;;;;;;;17.98;11.60;;;5.10;99.90;;;;;;5059700;28;20047;-89
2021/12/05 11:41:23;;;;;;;14.55;11.88;;;5.20;99.90;;;;;;5052695;28;20024;-88
2021/12/05 11:43:54;;;;;;;14.63;11.75;;;5.20;99.90;;;;;;5049921;28;20017;-90
2021/12/05 11:46:24;;;;;;;15.40;12.30;;;5.20;99.90;;;;;;5044732;28;20032;-90
2021/12/05 11:48:49;;;;;;;15.88;11.90;;;5.20;99.90;;;;;;5044259;28;20052;-89
2021/12/05 11:51:24;;;;;;;15.85;11.32;;;5.20;99.90;;;;;;5058459;28;20029;-90
2021/12/05 11:54:01;;;;;;;16.05;11.73;;;5.20;99.90;;;;;;5057258;28;20566;-89
2021/12/05 11:56:30;;;;;;;14.50;11.85;;;5.20;99.90;;;;;;5051767;28;20048;-89
2021/12/05 11:59:04;;;;;;;15.32;11.20;;;5.20;99.90;;;;;;5058075;28;20037;-89
2021/12/05 12:01:36;;;;;;;14.70;11.00;;;5.20;99.90;;;;;;5058601;28;20044;-88
2021/12/05 12:04:03;;;;;;;15.25;11.50;;;5.30;99.90;;;;;;5037869;28;20861;-88
2021/12/05 12:06:29;;;;;;;20.15;12.73;;;5.30;99.90;;;;;;5037813;28;20048;-88
2021/12/05 12:08:55;;;;;;;16.15;11.52;;;5.40;99.90;;;;;;5050291;28;20027;-88
2021/12/05 12:11:23;;;;;;;15.48;12.10;;;5.30;99.90;;;;;;5058846;28;20059;-89
2021/12/05 12:13:51;;;;;;;16.33;11.02;;;5.30;99.90;;;;;;5058046;28;20039;-91
2021/12/05 12:16:17;;;;;;;18.73;14.02;;;5.30;99.90;;;;;;5053281;28;20018;-90
2021/12/05 12:18:49;;;;;;;18.20;13.43;;;5.30;99.90;;;;;;5042320;28;20032;-91
2021/12/05 12:21:20;;;;;;;16.05;12.45;;;5.40;99.90;;;;;;5042144;28;20017;-91
2021/12/05 12:23:50;;;;;;;15.90;13.05;;;5.30;99.90;;;;;;5046031;28;20025;-90
2021/12/05 12:26:17;;;;;;;19.27;12.75;;;5.30;99.90;;;;;;5038797;28;20358;-91
2021/12/05 12:28:48;;;;;;;14.82;11.15;;;5.30;99.90;;;;;;5061870;28;20021;-90
2021/12/05 12:31:15;;;;;;;13.13;11.20;;;5.30;99.90;;;;;;5053706;28;20021;-89
2021/12/05 12:33:46;;;;;;;13.30;10.65;;;5.30;99.90;;;;;;5055544;28;20047;-90
2021/12/05 12:36:13;;;;;;;12.70;9.98;;;5.40;99.90;;;;;;5027241;28;20053;-90
2021/12/05 12:38:42;;;;;;;13.23;10.27;;;5.40;99.90;;;;;;5064533;28;20037;-91
2021/12/05 12:41:18;;;;;;;13.00;11.02;;;5.40;99.90;;;;;;5046771;28;20109;-91
2021/12/05 12:44:02;;;;;;;12.88;10.60;;;5.50;99.90;;;;;;5038380;28;20032;-88
2021/12/05 12:46:54;;;;;;;15.20;10.57;;;5.50;99.90;;;;;;5044839;28;20024;-92
2021/12/05 12:49:28;;;;;;;13.98;11.30;;;5.50;99.90;;;;;;5018277;28;20052;-93
2021/12/05 12:51:59;;;;;;;13.75;10.88;;;5.40;99.90;;;;;;5025422;28;20017;-91
2021/12/05 12:54:36;;;;;;;12.85;9.95;;;5.40;99.90;;;;;;5051514;28;20036;-90
2021/12/05 12:57:16;;;;;;;11.82;9.38;;;5.50;99.90;;;;;;5039077;28;20047;-90
2021/12/05 12:59:50;;;;;;;12.50;9.85;;;5.40;99.90;;;;;;5056269;28;20032;-90
2021/12/05 13:02:30;;;;;;;11.40;9.05;;;5.40;99.90;;;;;;5042811;28;20020;-90
2021/12/05 13:05:24;;;;;;;12.88;9.77;;;5.50;99.90;;;;;;5040503;28;20056;-91
2021/12/05 13:10:39;;;;;;;14.02;10.63;;;5.50;99.90;;;;;;5058444;28;20047;-88
2021/12/05 13:13:17;;;;;;;11.07;8.50;;;5.50;99.90;;;;;;5022187;28;20526;-90
2021/12/05 13:15:45;;;;;;;11.05;8.57;;;5.40;99.90;;;;;;5058005;28;20031;-90
2021/12/05 13:18:10;;;;;;;10.55;8.80;;;5.40;99.90;;;;;;5054422;28;20055;-90
2021/12/05 13:20:53;;;;;;;10.82;9.15;;;5.40;99.90;;;;;;5044656;28;20045;-90
2021/12/05 13:23:31;;;;;;;10.05;8.38;;;5.30;99.90;;;;;;5046935;28;20025;-89
2021/12/05 13:26:35;;;;;;;11.07;7.80;;;5.30;99.90;;;;;;5026117;28;20021;-90
2021/12/05 13:29:20;;;;;;;9.75;8.30;;;5.30;99.90;;;;;;5037555;28;20033;-89
2021/12/05 13:32:05;;;;;;;9.73;7.13;;;5.40;99.90;;;;;;5054548;28;20041;-91
2021/12/05 13:34:47;;;;;;;9.52;7.50;;;5.30;99.90;;;;;;5047614;28;20147;-90
2021/12/05 13:37:13;;;;;;;11.05;8.18;;;5.40;99.90;;;;;;5043427;28;20032;-92
2021/12/05 13:40:06;;;;;;;9.90;8.30;;;5.40;99.90;;;;;;5059381;28;20088;-90
2021/12/05 13:42:52;;;;;;;11.15;8.68;;;5.40;99.90;;;;;;5043951;28;20029;-91
2021/12/05 13:45:42;;;;;;;10.70;8.20;;;5.40;99.90;;;;;;5044821;28;20025;-90
2021/12/05 13:48:10;;;;;;;10.77;8.77;;;5.40;99.90;;;;;;5048850;28;20078;-91
2021/12/05 13:50:42;;;;;;;11.02;8.90;;;5.40;99.90;;;;;;5034327;28;20021;-89
2021/12/05 13:53:17;;;;;;;9.95;8.32;;;5.30;99.90;;;;;;5043886;28;20131;-90
2021/12/05 13:55:46;;;;;;;9.10;7.03;;;5.40;99.90;;;;;;5049366;28;20115;-90
2021/12/05 13:58:16;;;;;;;9.95;7.45;;;5.40;99.90;;;;;;5051826;28;20021;-91
2021/12/05 14:00:59;;;;;;;8.90;7.57;;;5.50;99.90;;;;;;5069324;28;20020;-90
2021/12/05 14:03:56;;;;;;;11.05;7.75;;;5.50;99.90;;;;;;5081017;28;20000;-90
2021/12/05 14:06:34;;;;;;;9.85;7.40;;;5.50;99.90;;;;;;5075815;28;20037;-91
2021/12/05 14:09:20;;;;;;;8.38;6.97;;;5.40;99.90;;;;;;5077382;28;20084;-91
2021/12/05 14:11:50;;;;;;;9.40;8.05;;;5.40;99.90;;;;;;5062410;28;20044;-89
2021/12/05 14:14:21;;;;;;;11.65;8.60;;;5.40;99.90;;;;;;5065768;28;20009;-89
2021/12/05 14:16:49;;;;;;;12.18;8.77;;;5.40;99.90;;;;;;5062613;28;20025;-92
2021/12/05 14:19:18;;;;;;;9.77;8.13;;;5.40;99.90;;;;;;5061989;28;20047;-92
2021/12/05 14:21:50;;;;;;;11.85;7.57;;;5.30;99.90;;;;;;5062729;28;20013;-90
2021/12/05 14:24:19;;;;;;;9.77;8.02;;;5.30;99.90;;;;;;5066127;28;20013;-92
2021/12/05 14:26:51;;;;;;;10.75;8.82;;;5.30;99.90;;;;;;5063439;28;20048;-90
2021/12/05 14:29:19;;;;;;;9.55;7.43;;;5.30;99.90;;;;;;5057153;28;20007;-91
2021/12/05 14:32:03;;;;;;;10.82;8.90;;;5.30;99.90;;;;;;5062434;28;20023;-91
2021/12/05 14:34:29;;;;;;;9.43;7.82;;;5.20;99.90;;;;;;5060629;28;20052;-89
2021/12/05 14:37:17;;;;;;;9.60;7.88;;;5.30;99.90;;;;;;5060414;28;20021;-88
2021/12/05 14:39:59;;;;;;;9.18;6.97;;;5.30;99.90;;;;;;5074064;28;20025;-92
2021/12/05 14:42:27;;;;;;;8.75;6.68;;;5.20;99.90;;;;;;5043781;28;20237;-91
2021/12/05 14:44:57;;;;;;;8.90;6.30;;;5.30;99.90;;;;;;5055887;28;20028;-90
2021/12/05 14:47:30;;;;;;;8.60;6.18;;;5.30;99.90;;;;;;5070957;28;20070;-91
2021/12/05 14:49:59;;;;;;;8.43;6.20;;;5.30;99.90;;;;;;5046605;28;20048;-90
2021/12/05 14:52:31;;;;;;;8.00;6.32;;;5.30;99.90;;;;;;5039939;28;20029;-91
2021/12/05 14:54:58;;;;;;;7.05;5.70;;;5.30;99.90;;;;;;5051883;28;20036;-88
2021/12/05 14:57:27;;;;;;;7.70;5.78;;;5.30;99.90;;;;;;5057690;28;20085;-88
2021/12/05 15:00:13;;;;;;;7.57;5.72;;;5.30;99.90;;;;;;5038543;28;20013;-90
2021/12/05 15:02:42;;;;;;;7.25;5.82;;;5.30;99.90;;;;;;5039726;28;20029;-91
2021/12/05 15:05:14;;;;;;;8.45;6.18;;;5.30;99.90;;;;;;5039696;28;20074;-90
2021/12/05 15:07:40;;;;;;;8.60;6.45;;;5.30;99.90;;;;;;5046868;28;20139;-91
2021/12/05 15:10:07;;;;;;;7.85;6.15;;;5.30;99.90;;;;;;5037640;28;20092;-91
2021/12/05 15:12:34;;;;;;;8.60;7.03;;;5.30;99.90;;;;;;5062981;28;20059;-91
2021/12/05 15:15:13;;;;;;;8.40;6.80;;;5.30;99.90;;;;;;5042633;28;20029;-88
2021/12/05 15:17:42;;;;;;;9.23;6.75;;;5.30;99.90;;;;;;5075024;28;20021;-90
2021/12/05 15:20:11;;;;;;;9.18;7.25;;;5.30;99.90;;;;;;5040905;28;20451;-92
2021/12/05 15:22:37;;;;;;;7.82;6.35;;;5.30;99.90;;;;;;5043245;28;20032;-90
2021/12/05 15:25:06;;;;;;;9.25;6.53;;;5.30;99.90;;;;;;5042274;28;20096;-90
2021/12/05 15:27:34;;;;;;;8.95;7.07;;;5.30;99.90;;;;;;5038083;28;20029;-90
2021/12/05 15:30:13;;;;;;;9.23;6.68;;;5.40;99.90;;;;;;5038713;28;20048;-88
2021/12/05 15:32:42;;;;;;;8.00;6.57;;;5.30;99.90;;;;;;5033092;28;20029;-90
2021/12/05 15:35:15;;;;;;;9.38;7.47;;;5.30;99.90;;;;;;5053957;28;20029;-89
2021/12/05 15:37:48;;;;;;;;;;;5.30;99.90;;;;;;5053969;28;20017;-88
2021/12/05 15:40:16;;;;;;;7.90;6.03;;;5.20;99.90;;;;;;5056798;28;19908;-91
2021/12/05 15:42:42;;;;;;;9.80;6.82;;;5.20;99.90;;;;;;5051172;28;20024;-89
2021/12/05 15:45:13;;;;;;;7.93;6.18;;;5.20;99.90;;;;;;5054183;28;20019;-89
2021/12/05 15:47:40;;;;;;;10.73;6.63;;;5.20;99.90;;;;;;5041889;28;20099;-91
2021/12/05 15:50:19;;;;;;;10.07;6.80;;;5.20;99.90;;;;;;5059232;28;20111;-92
2021/12/05 15:52:54;;;;;;;8.48;6.38;;;5.20;99.90;;;;;;5071453;28;20440;-93
2021/12/05 15:55:24;;;;;;;9.13;6.85;;;5.20;99.90;;;;;;5041425;28;20037;-90
2021/12/05 15:57:55;;;;;;;8.93;6.68;;;5.20;99.90;;;;;;5035845;28;20089;-89
2021/12/05 16:00:31;;;;;;;8.10;6.30;;;5.20;99.90;;;;;;5044483;28;20032;-88
2021/12/05 16:03:08;;;;;;;8.35;6.57;;;5.20;99.90;;;;;;5050739;28;20029;-91
2021/12/05 16:05:36;;;;;;;8.63;6.55;;;5.20;99.90;;;;;;5050466;28;20043;-89
2021/12/05 16:08:16;;;;;;;9.10;6.85;;;5.20;99.90;;;;;;5051689;28;20051;-91
2021/12/05 16:10:45;;;;;;;8.88;7.40;;;5.20;99.90;;;;;;5043687;28;20108;-89
2021/12/05 16:13:17;;;;;;;9.48;6.97;;;5.20;99.90;;;;;;5032603;28;20127;-89
2021/12/05 16:15:46;;;;;;;10.97;7.53;;;5.20;99.90;;;;;;5032158;28;20017;-89
2021/12/05 16:18:14;;;;;;;8.60;7.00;;;5.20;99.90;;;;;;5038867;28;20021;-87
2021/12/05 16:20:45;;;;;;;9.93;7.78;;;5.20;99.90;;;;;;5027174;28;20033;-87
2021/12/05 16:23:22;;;;;;;9.68;7.43;;;5.20;99.90;;;;;;5033168;28;20049;-95
2021/12/05 16:26:11;;;;;;;9.10;7.32;;;5.20;99.90;;;;;;5036871;28;20048;-93
2021/12/05 16:29:01;;;;;;;8.35;7.30;;;5.20;99.90;;;;;;5019145;28;20458;-93
2021/12/05 16:31:39;;;;;;;7.60;6.47;;;5.20;99.90;;;;;;5019996;28;20435;-93
2021/12/05 16:34:43;;;;;;;9.38;7.15;;;5.20;99.90;;;;;;5019868;28;20040;-92
2021/12/05 16:37:10;;;;;;;10.43;6.25;;;5.10;99.90;;;;;;5004717;28;20038;-92
2021/12/05 16:39:49;;;;;;;9.13;6.75;;;5.20;99.90;;;;;;5019737;28;20049;-92
2021/12/05 16:42:21;;;;;;;9.52;6.95;;;5.20;99.90;;;;;;5019855;28;20021;-92
2021/12/05 16:44:59;;;;;;;9.63;6.72;;;5.20;99.90;;;;;;5022660;28;20057;-92
2021/12/05 16:47:31;;;;;;;9.32;7.88;;;5.10;99.90;;;;;;5020252;28;20025;-90
2021/12/05 16:50:06;;;;;;;9.13;7.07;;;5.20;99.90;;;;;;5027407;28;20032;-92
2021/12/05 16:52:42;;;;;;;9.20;6.80;;;5.10;99.90;;;;;;5024458;28;20025;-92
2021/12/05 16:55:21;;;;;;;8.57;6.47;;;5.10;99.90;;;;;;5021083;28;20038;-92
2021/12/05 16:58:02;;;;;;;9.30;7.53;;;5.10;99.90;;;;;;5019103;28;20033;-90
2021/12/05 17:00:29;;;;;;;10.93;7.20;;;5.10;99.90;;;;;;5017954;28;20087;-93
2021/12/05 17:03:01;;;;;;;8.93;7.07;;;5.10;99.90;;;;;;5021276;28;20144;-95
2021/12/05 17:05:35;;;;;;;8.52;7.13;;;5.10;99.90;;;;;;5021418;28;20491;-93
2021/12/05 17:08:13;;;;;;;11.15;7.93;;;5.10;99.90;;;;;;5021369;28;20053;-91
2021/12/05 17:11:17;;;;;;;10.40;7.85;;;5.00;99.90;;;;;;5025097;28;20018;-92
2021/12/05 17:13:50;;;;;;;10.25;7.18;;;5.00;99.90;;;;;;5003765;28;20077;-90
2021/12/05 17:16:23;;;;;;;9.40;7.00;;;5.00;99.90;;;;;;5024168;28;20025;-91
2021/12/05 17:19:01;;;;;;;9.90;7.18;;;5.00;99.90;;;;;;5003988;28;20608;-92
2021/12/05 17:21:36;;;;;;;10.70;7.38;;;5.00;99.90;;;;;;5003464;28;20018;-90
2021/12/05 17:24:12;;;;;;;10.75;7.82;;;5.00;99.90;;;;;;5003519;28;20026;-90
2021/12/05 17:26:48;;;;;;;11.70;8.57;;;5.00;99.90;;;;;;5006561;28;20024;-92
2021/12/05 17:29:24;;;;;;;12.93;9.15;;;5.00;99.90;;;;;;5025271;28;20479;-91
2021/12/05 17:31:53;;;;;;;11.82;9.07;;;5.00;99.90;;;;;;5026203;28;20018;-90
2021/12/05 17:34:42;;;;;;;12.10;9.00;;;5.00;99.90;;;;;;5022535;28;20034;-92
2021/12/05 17:37:18;;;;;;;11.95;9.30;;;5.00;99.90;;;;;;5023591;28;20042;-91
2021/12/05 17:39:48;;;;;;;12.55;9.07;;;5.00;99.90;;;;;;5024469;28;20112;-94
2021/12/05 17:42:23;;;;;;;12.65;9.13;;;5.00;99.90;;;;;;5025136;28;20021;-93
2021/12/05 17:44:54;;;;;;;14.07;9.30;;;5.00;99.90;;;;;;5025547;28;20029;-94
2021/12/05 17:47:23;;;;;;;12.65;8.93;;;5.00;99.90;;;;;;5024634;28;20084;-94
2021/12/05 17:49:52;;;;;;;13.30;9.40;;;5.00;99.90;;;;;;5017868;28;20028;-90
2021/12/05 17:52:21;;;;;;;12.73;8.60;;;5.10;99.90;;;;;;5022559;28;20029;-92
2021/12/05 17:54:54;;;;;;;13.15;9.55;;;5.00;99.90;;;;;;5022727;28;20030;-92
2021/12/05 17:57:42;;;;;;;13.82;8.95;;;5.00;99.90;;;;;;5024203;28;20072;-90
2021/12/05 18:00:37;;;;;;;11.98;8.68;;;5.00;99.90;;;;;;5023091;28;20355;-92
2021/12/05 18:03:07;;;;;;;13.32;8.93;;;5.00;99.90;;;;;;5022339;28;20045;-91
2021/12/05 18:05:35;;;;;;;13.77;8.93;;;5.00;99.90;;;;;;5023894;28;20021;-90
2021/12/05 18:08:14;;;;;;;13.38;9.60;;;5.10;99.90;;;;;;5024502;28;20053;-87
2021/12/05 18:10:47;;;;;;;14.15;9.30;;;5.00;99.90;;;;;;5024321;28;20018;-88
2021/12/05 18:13:13;;;;;;;14.85;9.43;;;5.10;99.90;;;;;;5022799;28;20029;-90
2021/12/05 18:15:54;;;;;;;14.93;10.02;;;5.00;99.90;;;;;;5025422;28;20117;-90
2021/12/05 18:18:25;;;;;;;16.33;10.82;;;5.10;99.90;;;;;;5023279;28;20040;-90
2021/12/05 18:20:51;;;;;;;15.55;11.18;;;5.10;99.90;;;;;;5021676;28;20033;-88
2021/12/05 18:23:18;;;;;;;17.92;12.27;;;5.10;99.90;;;;;;5021571;28;20026;-91
2021/12/05 18:25:44;;;;;;;17.58;11.73;;;5.10;99.90;;;;;;5022565;28;20021;-90
2021/12/05 18:28:10;;;;;;;15.07;10.95;;;5.10;99.90;;;;;;5021144;28;20427;-91
2021/12/05 18:30:37;;;;;;;17.42;11.73;;;5.10;99.90;;;;;;5020659;28;20043;-91
2021/12/05 18:33:08;;;;;;;18.60;11.45;;;5.10;99.90;;;;;;5021687;28;20029;-91
2021/12/05 18:35:35;;;;;;;19.55;12.13;;;5.10;99.90;;;;;;5019798;28;20029;-86
2021/12/05 18:38:09;;;;;;;18.17;12.57;;;5.10;99.90;;;;;;5020203;28;20014;-88
2021/12/05 18:40:36;;;;;;;;;;;5.00;99.90;;;;;;5038428;28;20037;-89